createdAt,value
2022-09-22T00:02:26.541Z,7.37
2022-09-22T00:05:12.362Z,7.23
2022-09-22T00:07:57.652Z,7.12
2022-09-22T00:10:42.952Z,7.15
2022-09-22T00:13:28.663Z,7.22
2022-09-22T00:16:15.585Z,7.17
2022-09-22T00:19:01.186Z,7.15
2022-09-22T00:21:47.760Z,7.06
2022-09-22T00:24:34.523Z,7.16
2022-09-22T00:27:19.869Z,7.05
2022-09-22T00:30:06.919Z,7.06
2022-09-22T00:32:52.613Z,7.05
2022-09-22T00:35:38.371Z,6.95
2022-09-22T00:38:24.024Z,6.98
2022-09-22T00:41:16.534Z,6.93
2022-09-22T00:44:27.052Z,7.00
2022-09-22T00:47:18.606Z,6.96
2022-09-22T00:50:23.701Z,7.07
2022-09-22T00:53:14.024Z,6.93
2022-09-22T00:56:05.806Z,6.93
2022-09-22T00:58:56.601Z,7.02
2022-09-22T01:01:42.578Z,7.18
2022-09-22T01:04:29.022Z,7.15
2022-09-22T01:07:14.985Z,7.24
2022-09-22T01:10:00.508Z,7.38
2022-09-22T01:13:06.121Z,7.27
2022-09-22T01:16:20.871Z,7.17
2022-09-22T01:19:35.088Z,7.05
2022-09-22T01:22:37.274Z,7.03
2022-09-22T01:25:43.902Z,7.18
2022-09-22T01:28:54.186Z,7.47
2022-09-22T01:32:08.397Z,7.36
2022-09-22T01:35:16.541Z,7.59
2022-09-22T01:38:19.239Z,7.53
2022-09-22T01:41:15.180Z,7.58
2022-09-22T01:44:07.937Z,7.68
2022-09-22T01:47:00.034Z,7.67
2022-09-22T01:49:51.372Z,7.50
2022-09-22T01:52:41.128Z,7.34
2022-09-22T01:55:32.550Z,7.29
2022-09-22T01:58:24.697Z,7.25
2022-09-22T02:01:15.158Z,7.10
2022-09-22T02:04:15.635Z,7.51
2022-09-22T02:07:16.642Z,7.56
2022-09-22T02:10:06.971Z,7.70
2022-09-22T02:12:52.519Z,7.70
2022-09-22T02:15:56.276Z,7.69
2022-09-22T02:18:53.198Z,7.54
2022-09-22T02:21:39.635Z,7.54
2022-09-22T02:24:54.449Z,7.54
2022-09-22T02:27:41.468Z,7.42
2022-09-22T02:30:27.368Z,7.26
2022-09-22T02:33:14.179Z,7.24
2022-09-22T02:36:35.638Z,7.31
2022-09-22T02:39:39.509Z,7.19
2022-09-22T02:42:29.750Z,7.05
2022-09-22T02:45:22.369Z,7.01
2022-09-22T02:48:19.318Z,6.87
2022-09-22T02:51:05.976Z,7.03
2022-09-22T02:53:51.636Z,7.14
2022-09-22T02:56:37.276Z,7.06
2022-09-22T02:59:22.911Z,7.00
2022-09-22T03:02:08.272Z,7.06
2022-09-22T03:04:53.878Z,7.02
2022-09-22T03:07:39.601Z,6.94
2022-09-22T03:10:25.414Z,6.96
2022-09-22T03:13:17.906Z,6.99
2022-09-22T03:16:03.586Z,6.90
2022-09-22T03:18:49.028Z,6.90
2022-09-22T03:21:34.586Z,6.78
2022-09-22T03:24:20.038Z,6.92
2022-09-22T03:27:05.415Z,6.84
2022-09-22T03:29:50.636Z,6.81
2022-09-22T03:32:36.822Z,6.87
2022-09-22T03:35:22.721Z,6.80
2022-09-22T03:38:08.359Z,6.83
2022-09-22T03:40:54.191Z,6.76
2022-09-22T03:43:39.781Z,6.81
2022-09-22T03:46:25.990Z,6.77
2022-09-22T03:49:11.515Z,6.76
2022-09-22T03:51:57.547Z,6.71
2022-09-22T03:54:43.061Z,6.71
2022-09-22T03:57:30.101Z,6.65
2022-09-22T04:00:16.647Z,6.68
2022-09-22T04:03:02.189Z,6.67
2022-09-22T04:05:51.415Z,6.63
2022-09-22T04:08:37.184Z,6.67
2022-09-22T04:11:24.215Z,6.65
2022-09-22T04:14:09.660Z,6.67
2022-09-22T04:16:55.480Z,6.76
2022-09-22T04:19:41.288Z,6.74
2022-09-22T04:22:26.595Z,6.79
2022-09-22T04:25:12.481Z,6.81
2022-09-22T04:28:00.262Z,6.95
2022-09-22T04:30:47.546Z,6.95
2022-09-22T04:33:33.007Z,6.96
2022-09-22T04:36:18.709Z,7.18
2022-09-22T04:39:04.130Z,7.22
2022-09-22T04:41:49.657Z,7.13
2022-09-22T04:44:35.626Z,7.15
2022-09-22T04:47:20.945Z,7.09
2022-09-22T04:50:06.978Z,6.98
2022-09-22T04:52:55.695Z,7.07
2022-09-22T04:55:41.300Z,7.17
2022-09-22T04:58:26.513Z,7.09
2022-09-22T05:01:11.775Z,7.03
2022-09-22T05:03:57.690Z,6.98
2022-09-22T05:06:43.721Z,6.89
2022-09-22T05:09:29.909Z,6.80
2022-09-22T05:12:15.333Z,6.78
2022-09-22T05:15:00.786Z,7.06
2022-09-22T05:17:55.026Z,7.23
2022-09-22T05:20:40.493Z,7.14
2022-09-22T05:23:26.063Z,7.36
2022-09-22T05:26:11.350Z,7.30
2022-09-22T05:28:57.573Z,7.53
2022-09-22T05:31:42.974Z,7.48
2022-09-22T05:34:28.725Z,7.29
2022-09-22T05:37:14.501Z,7.40
2022-09-22T05:39:59.829Z,7.43
2022-09-22T05:42:47.853Z,7.64
2022-09-22T05:45:33.438Z,7.72
2022-09-22T05:48:19.092Z,7.63
2022-09-22T05:51:04.724Z,7.65
2022-09-22T05:53:50.044Z,7.54
2022-09-22T05:56:35.599Z,7.62
2022-09-22T05:59:20.877Z,7.60
2022-09-22T06:02:23.839Z,7.66
2022-09-22T06:05:11.290Z,7.72
2022-09-22T06:07:59.538Z,7.76
2022-09-22T06:10:51.044Z,7.88
2022-09-22T06:13:36.683Z,7.96
2022-09-22T06:16:22.027Z,8.04
2022-09-22T06:19:07.636Z,8.17
2022-09-22T06:21:53.077Z,8.22
2022-09-22T06:24:38.294Z,8.39
2022-09-22T06:27:23.605Z,8.47
2022-09-22T06:30:11.322Z,8.33
2022-09-22T06:32:56.941Z,8.49
2022-09-22T06:35:42.993Z,8.56
2022-09-22T06:38:31.842Z,8.60
2022-09-22T06:41:17.185Z,8.48
2022-09-22T06:44:05.234Z,8.71
2022-09-22T06:46:50.602Z,8.71
2022-09-22T06:49:35.956Z,8.71
2022-09-22T06:52:21.517Z,8.93
2022-09-22T06:55:07.524Z,8.94
2022-09-22T06:57:53.184Z,9.09
2022-09-22T07:00:41.623Z,9.06
2022-09-22T07:03:27.469Z,9.19
2022-09-22T07:06:20.436Z,9.36
2022-09-22T07:09:06.623Z,9.34
2022-09-22T07:11:52.179Z,9.53
2022-09-22T07:14:37.716Z,9.87
2022-09-22T07:17:23.611Z,10.45
2022-09-22T07:20:09.531Z,10.77
2022-09-22T07:23:00.267Z,10.99
2022-09-22T07:25:56.351Z,11.41
2022-09-22T07:28:42.437Z,11.68
2022-09-22T07:31:30.248Z,12.09
2022-09-22T07:34:16.378Z,12.38
2022-09-22T07:37:02.856Z,13.72
2022-09-22T07:39:48.393Z,14.59
2022-09-22T07:42:34.195Z,15.42
2022-09-22T07:45:19.929Z,15.63
2022-09-22T07:48:23.671Z,15.86
2022-09-22T07:51:20.542Z,16.60
2022-09-22T07:54:08.676Z,17.45
2022-09-22T07:56:58.530Z,17.43
2022-09-22T07:59:45.094Z,18.31
2022-09-22T08:02:31.038Z,19.10
2022-09-22T08:05:16.490Z,19.39
2022-09-22T08:08:02.476Z,19.94
2022-09-22T08:10:48.969Z,20.29
2022-09-22T08:13:35.051Z,20.57
2022-09-22T08:16:24.418Z,20.83
2022-09-22T08:19:14.748Z,20.72
2022-09-22T08:22:00.182Z,21.83
2022-09-22T08:24:45.727Z,21.81
2022-09-22T08:27:31.182Z,22.54
2022-09-22T08:30:19.597Z,23.04
2022-09-22T08:33:05.137Z,23.96
2022-09-22T08:35:57.720Z,23.59
2022-09-22T08:38:47.156Z,23.70
2022-09-22T08:42:01.093Z,24.18
2022-09-22T08:45:09.212Z,24.65
2022-09-22T08:48:20.201Z,24.73
2022-09-22T08:51:41.629Z,26.17
2022-09-22T08:54:31.709Z,26.19
2022-09-22T08:57:31.609Z,26.26
2022-09-22T09:00:19.603Z,27.26
2022-09-22T09:03:16.775Z,27.13
2022-09-22T09:06:12.132Z,27.31
2022-09-22T09:09:05.298Z,27.15
2022-09-22T09:12:28.345Z,28.34
2022-09-22T09:15:19.866Z,29.02
2022-09-22T09:18:13.695Z,28.51
2022-09-22T09:21:03.433Z,27.43
2022-09-22T09:27:09.442Z,28.05
2022-09-22T09:30:10.234Z,27.85
2022-09-22T09:33:00.531Z,28.37
2022-09-22T09:35:51.904Z,29.27
2022-09-22T09:38:48.397Z,29.66
2022-09-22T09:41:36.319Z,29.64
2022-09-22T09:44:29.189Z,30.30
2022-09-22T09:47:22.586Z,30.99
2022-09-22T09:50:11.078Z,30.91
2022-09-22T09:52:57.734Z,31.49
2022-09-22T09:55:43.270Z,31.21
2022-09-22T09:58:47.418Z,30.47
2022-09-22T10:01:33.034Z,31.34
2022-09-22T10:04:30.912Z,31.62
2022-09-22T10:07:23.490Z,31.85
2022-09-22T10:10:37.811Z,30.11
2022-09-22T10:13:30.944Z,31.20
2022-09-22T10:16:24.815Z,30.78
2022-09-22T10:19:21.903Z,30.32
2022-09-22T10:22:27.743Z,31.86
2022-09-22T10:25:22.979Z,33.01
2022-09-22T10:28:17.040Z,31.32
2022-09-22T10:31:03.306Z,32.25
2022-09-22T10:33:59.635Z,30.43
2022-09-22T10:36:47.178Z,29.49
2022-09-22T10:39:43.082Z,31.33
2022-09-22T10:42:45.464Z,31.27
2022-09-22T10:45:53.065Z,33.24
2022-09-22T10:48:48.511Z,32.06
2022-09-22T10:51:59.817Z,30.23
2022-09-22T10:54:48.948Z,33.87
2022-09-22T10:57:52.855Z,34.15
2022-09-22T11:00:40.380Z,32.89
2022-09-22T11:03:50.976Z,31.86
2022-09-22T11:07:33.402Z,33.03
2022-09-22T11:11:01.053Z,31.33
2022-09-22T11:14:07.065Z,32.55
2022-09-22T11:17:12.737Z,33.80
2022-09-22T11:20:36.130Z,33.63
2022-09-22T11:23:44.986Z,33.73
2022-09-22T11:26:39.605Z,33.63
2022-09-22T11:29:51.225Z,33.61
2022-09-22T11:32:45.678Z,35.05
2022-09-22T11:36:09.744Z,35.39
2022-09-22T11:39:19.160Z,30.28
2022-09-22T11:42:35.957Z,28.77
2022-09-22T11:45:43.602Z,31.88
2022-09-22T11:48:45.151Z,32.80
2022-09-22T11:52:05.207Z,32.35
2022-09-22T11:55:15.995Z,33.48
2022-09-22T11:58:09.200Z,33.68
2022-09-22T12:01:00.530Z,33.12
2022-09-22T12:03:55.543Z,32.94
2022-09-22T12:06:44.779Z,33.71
2022-09-22T12:09:49.656Z,34.21
2022-09-22T12:12:36.323Z,30.18
2022-09-22T12:16:02.204Z,28.60
2022-09-22T12:18:55.816Z,33.55
2022-09-22T12:22:15.439Z,36.11
2022-09-22T12:25:01.410Z,35.91
2022-09-22T12:27:46.848Z,35.82
2022-09-22T12:30:32.977Z,34.77
2022-09-22T12:33:18.232Z,31.21
2022-09-22T12:36:05.484Z,32.87
2022-09-22T12:38:51.769Z,34.25
2022-09-22T12:42:00.151Z,33.59
2022-09-22T12:44:57.305Z,31.16
2022-09-22T12:47:49.683Z,28.17
2022-09-22T12:50:39.885Z,27.92
2022-09-22T12:53:28.619Z,27.79
2022-09-22T12:56:53.849Z,30.42
2022-09-22T12:59:39.345Z,34.45
2022-09-22T13:02:29.346Z,34.86
2022-09-22T13:05:26.942Z,34.02
2022-09-22T13:08:32.589Z,32.66
2022-09-22T13:11:18.401Z,31.69
2022-09-22T13:14:42.639Z,32.56
2022-09-22T13:17:46.681Z,33.85
2022-09-22T13:20:34.505Z,34.58
2022-09-22T13:23:19.984Z,34.11
2022-09-22T13:26:07.937Z,32.81
2022-09-22T13:29:07.142Z,28.72
2022-09-22T13:31:55.413Z,31.42
2022-09-22T13:34:41.037Z,32.50
2022-09-22T13:37:26.759Z,31.70
2022-09-22T13:40:12.517Z,28.92
2022-09-22T13:43:05.953Z,28.85
2022-09-22T13:45:52.333Z,26.92
2022-09-22T13:48:37.904Z,25.50
2022-09-22T13:51:25.802Z,24.00
2022-09-22T13:54:18.680Z,22.98
2022-09-22T13:57:15.500Z,21.92
2022-09-22T14:00:01.659Z,22.09
2022-09-22T14:02:47.434Z,22.15
2022-09-22T14:05:35.012Z,22.62
2022-09-22T14:08:30.554Z,22.37
2022-09-22T14:11:24.562Z,22.31
2022-09-22T14:14:24.352Z,21.66
2022-09-22T14:17:19.454Z,21.92
2022-09-22T14:20:08.892Z,21.78
2022-09-22T14:22:54.414Z,21.27
2022-09-22T14:25:40.120Z,21.08
2022-09-22T14:28:29.640Z,20.82
2022-09-22T14:31:21.810Z,20.89
2022-09-22T14:34:09.732Z,20.74
2022-09-22T14:36:56.134Z,20.95
2022-09-22T14:39:42.013Z,21.44
2022-09-22T14:42:30.077Z,21.33
2022-09-22T14:45:21.748Z,20.91
2022-09-22T14:48:16.789Z,20.91
2022-09-22T14:51:08.311Z,20.88
2022-09-22T14:53:57.625Z,20.70
2022-09-22T14:56:44.179Z,20.36
2022-09-22T14:59:54.796Z,20.32
2022-09-22T15:02:42.926Z,20.29
2022-09-22T15:05:33.695Z,20.08
2022-09-22T15:08:27.675Z,19.73
2022-09-22T15:11:13.719Z,19.66
2022-09-22T15:13:59.579Z,19.61
2022-09-22T15:16:44.824Z,19.92
2022-09-22T15:19:36.991Z,19.69
2022-09-22T15:22:24.030Z,19.78
2022-09-22T15:25:15.037Z,19.66
2022-09-22T15:28:00.794Z,19.68
2022-09-22T15:30:48.547Z,19.82
2022-09-22T15:33:33.712Z,19.68
2022-09-22T15:36:21.303Z,19.82
2022-09-22T15:39:16.087Z,19.56
2022-09-22T15:42:01.616Z,19.65
2022-09-22T15:44:48.011Z,19.70
2022-09-22T15:47:33.786Z,19.67
2022-09-22T15:50:23.800Z,19.44
2022-09-22T15:53:09.444Z,19.44
2022-09-22T15:55:54.835Z,19.44
2022-09-22T15:58:43.420Z,19.11
2022-09-22T16:01:29.611Z,18.97
2022-09-22T16:04:15.120Z,18.66
2022-09-22T16:07:08.319Z,18.11
2022-09-22T16:09:54.877Z,17.93
2022-09-22T16:12:41.626Z,17.84
2022-09-22T16:15:27.227Z,17.69
2022-09-22T16:18:12.896Z,17.39
2022-09-22T16:21:22.892Z,17.38
2022-09-22T16:24:10.703Z,17.15
2022-09-22T16:26:56.127Z,17.18
2022-09-22T16:29:43.367Z,16.98
2022-09-22T16:32:28.827Z,16.80
2022-09-22T16:35:14.340Z,16.82
2022-09-22T16:37:59.936Z,16.77
2022-09-22T16:40:59.598Z,16.54
2022-09-22T16:43:45.154Z,16.56
2022-09-22T16:46:33.423Z,16.63
2022-09-22T16:49:20.315Z,16.63
2022-09-22T16:52:05.985Z,16.56
2022-09-22T16:54:51.557Z,16.55
2022-09-22T16:57:37.101Z,16.30
2022-09-22T17:00:22.686Z,16.00
2022-09-22T17:03:08.309Z,15.90
2022-09-22T17:06:08.696Z,15.90
2022-09-22T17:08:58.540Z,15.80
2022-09-22T17:11:45.636Z,15.86
2022-09-22T17:14:32.561Z,15.76
2022-09-22T17:17:18.485Z,15.52
2022-09-22T17:20:04.192Z,15.57
2022-09-22T17:22:49.562Z,15.49
2022-09-22T17:25:34.983Z,15.35
2022-09-22T17:28:20.154Z,15.28
2022-09-22T17:31:07.484Z,15.19
2022-09-22T17:33:53.417Z,15.26
2022-09-22T17:36:39.388Z,14.96
2022-09-22T17:39:26.985Z,15.02
2022-09-22T17:42:14.536Z,14.87
2022-09-22T17:44:59.850Z,14.56
2022-09-22T17:48:03.806Z,14.46
2022-09-22T17:51:09.083Z,14.48
2022-09-22T17:54:12.697Z,14.14
2022-09-22T17:56:58.278Z,14.02
2022-09-22T17:59:43.870Z,14.00
2022-09-22T18:02:36.609Z,13.83
2022-09-22T18:05:27.709Z,13.78
2022-09-22T18:08:13.077Z,13.68
2022-09-22T18:11:01.498Z,13.63
2022-09-22T18:13:47.631Z,13.68
2022-09-22T18:16:34.845Z,13.61
2022-09-22T18:19:20.303Z,13.61
2022-09-22T18:22:07.796Z,13.44
2022-09-22T18:24:55.404Z,13.21
2022-09-22T18:27:41.080Z,13.21
2022-09-22T18:30:28.150Z,13.20
2022-09-22T18:33:14.172Z,13.12
2022-09-22T18:35:59.858Z,13.14
2022-09-22T18:38:45.419Z,13.02
2022-09-22T18:41:35.275Z,12.94
2022-09-22T18:44:21.952Z,12.82
2022-09-22T18:47:11.496Z,12.73
2022-09-22T18:49:58.692Z,12.84
2022-09-22T18:52:47.210Z,12.80
2022-09-22T18:55:33.016Z,12.75
2022-09-22T18:58:18.272Z,12.58
2022-09-22T19:01:07.117Z,12.51
2022-09-22T19:03:52.862Z,12.46
2022-09-22T19:06:57.055Z,12.50
2022-09-22T19:09:44.407Z,12.68
2022-09-22T19:12:39.337Z,12.58
2022-09-22T19:15:25.567Z,12.43
2022-09-22T19:18:11.467Z,12.45
2022-09-22T19:20:58.248Z,12.33
2022-09-22T19:23:43.824Z,12.25
2022-09-22T19:26:29.305Z,12.23
2022-09-22T19:29:14.608Z,12.11
2022-09-22T19:32:01.731Z,12.04
2022-09-22T19:34:47.122Z,11.97
2022-09-22T19:37:32.556Z,11.99
2022-09-22T19:40:19.232Z,11.84
2022-09-22T19:43:04.852Z,11.85
2022-09-22T19:45:51.890Z,11.79
2022-09-22T19:48:37.636Z,11.74
2022-09-22T19:51:23.580Z,11.79
2022-09-22T19:54:09.377Z,11.65
2022-09-22T19:56:55.104Z,11.62
2022-09-22T19:59:40.742Z,11.60
2022-09-22T20:02:26.520Z,11.56
2022-09-22T20:05:20.778Z,11.44
2022-09-22T20:08:15.416Z,11.36
2022-09-22T20:11:22.654Z,11.23
2022-09-22T20:14:20.055Z,11.33
2022-09-22T20:17:07.995Z,11.11
2022-09-22T20:19:55.161Z,11.17
2022-09-22T20:22:41.911Z,11.17
2022-09-22T20:25:32.324Z,11.09
2022-09-22T20:28:18.265Z,11.07
2022-09-22T20:31:03.830Z,11.10
2022-09-22T20:33:49.173Z,11.07
2022-09-22T20:36:37.120Z,11.03
2022-09-22T20:39:22.805Z,10.92
2022-09-22T20:42:08.335Z,10.69
2022-09-22T20:44:54.959Z,10.89
2022-09-22T20:47:41.052Z,10.96
2022-09-22T20:50:26.424Z,10.93
2022-09-22T20:53:12.736Z,10.72
2022-09-22T20:56:01.132Z,10.78
2022-09-22T20:58:46.708Z,10.78
2022-09-22T21:01:32.240Z,10.71
2022-09-22T21:04:17.665Z,10.72
2022-09-22T21:07:03.261Z,10.75
2022-09-22T21:10:07.200Z,10.81
2022-09-22T21:12:55.130Z,10.78
2022-09-22T21:15:40.740Z,10.85
2022-09-22T21:18:27.149Z,10.84
2022-09-22T21:21:15.309Z,10.89
2022-09-22T21:24:03.463Z,10.73
2022-09-22T21:26:49.612Z,10.75
2022-09-22T21:29:35.346Z,10.65
2022-09-22T21:32:20.927Z,10.61
2022-09-22T21:35:06.594Z,10.72
2022-09-22T21:37:55.077Z,10.81
2022-09-22T21:40:40.551Z,10.68
2022-09-22T21:43:26.788Z,10.75
2022-09-22T21:46:14.741Z,10.80
2022-09-22T21:49:02.643Z,10.75
2022-09-22T21:51:48.279Z,10.80
2022-09-22T21:54:33.860Z,10.65
2022-09-22T21:57:19.267Z,10.71
2022-09-22T22:00:07.193Z,10.73
2022-09-22T22:03:11.140Z,10.70
2022-09-22T22:06:01.833Z,10.68
2022-09-22T22:09:00.752Z,10.78
2022-09-22T22:11:49.383Z,10.79
2022-09-22T22:14:34.762Z,10.74
2022-09-22T22:17:20.116Z,10.61
2022-09-22T22:20:05.923Z,10.41
2022-09-22T22:22:51.148Z,10.42
2022-09-22T22:25:38.140Z,10.31
2022-09-22T22:28:23.458Z,10.32
2022-09-22T22:31:11.608Z,10.32
2022-09-22T22:33:57.333Z,10.20
2022-09-22T22:36:42.856Z,10.32
2022-09-22T22:39:29.841Z,10.21
2022-09-22T22:42:15.151Z,10.06
2022-09-22T22:45:00.759Z,10.16
2022-09-22T22:47:45.961Z,10.14
2022-09-22T22:50:31.521Z,10.13
2022-09-22T22:53:17.020Z,10.16
2022-09-22T22:56:05.865Z,10.00
2022-09-22T22:58:51.913Z,10.05
2022-09-22T23:01:37.831Z,10.10
2022-09-22T23:04:23.688Z,10.05
2022-09-22T23:07:08.846Z,10.03
2022-09-22T23:10:06.158Z,10.05
2022-09-22T23:12:52.659Z,10.12
2022-09-22T23:15:38.022Z,10.15
2022-09-22T23:18:23.582Z,10.11
2022-09-22T23:21:12.031Z,10.18
2022-09-22T23:23:57.719Z,10.01
2022-09-22T23:26:43.881Z,9.92
2022-09-22T23:29:29.419Z,9.97
2022-09-22T23:32:14.987Z,9.93
2022-09-22T23:35:00.374Z,9.93
2022-09-22T23:37:45.978Z,9.86
2022-09-22T23:40:31.529Z,9.88
2022-09-22T23:43:17.120Z,9.67
2022-09-22T23:46:04.742Z,9.62
2022-09-22T23:48:50.066Z,9.74
2022-09-22T23:51:35.838Z,9.69
2022-09-22T23:54:21.390Z,9.64
2022-09-22T23:57:07.035Z,9.70
2022-09-22T23:59:52.689Z,9.64
